sensor_id;sensor_type;location;lat;lon;timestamp;pressure;altitude;pressure_sealevel;temperature;humidity
78855;BME280;68206;59.956;30.234;2023-11-22T00:00:59;102485.41;;;-4.20;64.99
78855;BME280;68206;59.956;30.234;2023-11-22T00:03:28;102490.59;;;-4.20;64.90
78855;BME280;68206;59.956;30.234;2023-11-22T00:05:57;102483.78;;;-4.18;64.30
78855;BME280;68206;59.956;30.234;2023-11-22T00:08:25;102476.09;;;-4.16;64.58
78855;BME280;68206;59.956;30.234;2023-11-22T00:10:53;102482.19;;;-4.16;64.57
78855;BME280;68206;59.956;30.234;2023-11-22T00:13:22;102482.19;;;-4.16;64.96
78855;BME280;68206;59.956;30.234;2023-11-22T00:15:50;102471.13;;;-4.13;64.79
78855;BME280;68206;59.956;30.234;2023-11-22T00:18:18;102473.88;;;-4.10;65.09
78855;BME280;68206;59.956;30.234;2023-11-22T00:20:48;102464.59;;;-4.07;64.16
78855;BME280;68206;59.956;30.234;2023-11-22T00:23:17;102479.50;;;-4.02;65.08
78855;BME280;68206;59.956;30.234;2023-11-22T00:25:45;102468.59;;;-3.97;64.09
78855;BME280;68206;59.956;30.234;2023-11-22T00:28:14;102462.69;;;-3.94;63.92
78855;BME280;68206;59.956;30.234;2023-11-22T00:30:42;102451.59;;;-3.92;64.88
78855;BME280;68206;59.956;30.234;2023-11-22T00:33:11;102451.50;;;-3.93;64.43
78855;BME280;68206;59.956;30.234;2023-11-22T00:35:39;102452.34;;;-3.94;65.21
78855;BME280;68206;59.956;30.234;2023-11-22T00:38:09;102462.75;;;-3.93;64.51
78855;BME280;68206;59.956;30.234;2023-11-22T00:40:37;102458.56;;;-3.91;63.87
78855;BME280;68206;59.956;30.234;2023-11-22T00:43:05;102457.13;;;-3.86;63.84
78855;BME280;68206;59.956;30.234;2023-11-22T00:45:35;102453.56;;;-3.88;64.19
78855;BME280;68206;59.956;30.234;2023-11-22T00:48:03;102456.97;;;-3.89;64.37
78855;BME280;68206;59.956;30.234;2023-11-22T00:50:31;102463.84;;;-3.89;64.06
78855;BME280;68206;59.956;30.234;2023-11-22T00:53:00;102460.44;;;-3.88;63.95
78855;BME280;68206;59.956;30.234;2023-11-22T00:55:29;102450.00;;;-3.90;63.63
78855;BME280;68206;59.956;30.234;2023-11-22T00:57:58;102452.50;;;-3.91;64.60
78855;BME280;68206;59.956;30.234;2023-11-22T01:00:31;102450.78;;;-3.91;63.62
78855;BME280;68206;59.956;30.234;2023-11-22T01:02:59;102454.19;;;-3.92;63.65
78855;BME280;68206;59.956;30.234;2023-11-22T01:05:27;102442.13;;;-3.91;63.92
78855;BME280;68206;59.956;30.234;2023-11-22T01:07:56;102438.53;;;-3.93;64.10
78855;BME280;68206;59.956;30.234;2023-11-22T01:10:24;102443.66;;;-3.95;64.08
78855;BME280;68206;59.956;30.234;2023-11-22T01:12:54;102440.28;;;-3.94;63.51
78855;BME280;68206;59.956;30.234;2023-11-22T01:15:22;102443.56;;;-3.96;63.63
78855;BME280;68206;59.956;30.234;2023-11-22T01:17:51;102448.03;;;-3.94;63.54
78855;BME280;68206;59.956;30.234;2023-11-22T01:20:20;102444.47;;;-3.96;63.62
78855;BME280;68206;59.956;30.234;2023-11-22T01:22:50;102448.84;;;-3.95;63.72
78855;BME280;68206;59.956;30.234;2023-11-22T01:25:18;102448.84;;;-3.95;64.12
78855;BME280;68206;59.956;30.234;2023-11-22T01:27:47;102448.75;;;-3.96;62.88
78855;BME280;68206;59.956;30.234;2023-11-22T01:30:17;102455.47;;;-4.00;63.40
78855;BME280;68206;59.956;30.234;2023-11-22T01:32:45;102450.19;;;-4.01;63.31
78855;BME280;68206;59.956;30.234;2023-11-22T01:35:14;102451.69;;;-4.05;63.39
78855;BME280;68206;59.956;30.234;2023-11-22T01:37:43;102449.50;;;-4.14;64.01
78855;BME280;68206;59.956;30.234;2023-11-22T01:40:12;102459.75;;;-4.15;63.69
78855;BME280;68206;59.956;30.234;2023-11-22T01:42:40;102450.19;;;-4.16;64.35
78855;BME280;68206;59.956;30.234;2023-11-22T01:45:09;102453.88;;;-4.13;64.15
78855;BME280;68206;59.956;30.234;2023-11-22T01:47:39;102453.94;;;-4.11;63.62
78855;BME280;68206;59.956;30.234;2023-11-22T01:50:08;102452.09;;;-4.14;64.59
78855;BME280;68206;59.956;30.234;2023-11-22T01:52:37;102457.97;;;-4.16;63.95
78855;BME280;68206;59.956;30.234;2023-11-22T01:55:07;102460.75;;;-4.13;64.05
78855;BME280;68206;59.956;30.234;2023-11-22T01:57:37;102461.56;;;-4.14;63.72
78855;BME280;68206;59.956;30.234;2023-11-22T02:00:06;102471.66;;;-4.19;64.48
78855;BME280;68206;59.956;30.234;2023-11-22T02:02:42;102461.09;;;-4.22;63.88
78855;BME280;68206;59.956;30.234;2023-11-22T02:05:11;102460.31;;;-4.21;63.51
78855;BME280;68206;59.956;30.234;2023-11-22T02:07:40;102471.66;;;-4.19;63.91
78855;BME280;68206;59.956;30.234;2023-11-22T02:10:10;102460.41;;;-4.19;63.75
78855;BME280;68206;59.956;30.234;2023-11-22T02:12:38;102468.25;;;-4.18;64.22
78855;BME280;68206;59.956;30.234;2023-11-22T02:15:07;102464.06;;;-4.16;63.84
78855;BME280;68206;59.956;30.234;2023-11-22T02:17:36;102469.50;;;-4.11;63.54
78855;BME280;68206;59.956;30.234;2023-11-22T02:20:07;102462.72;;;-4.09;63.45
78855;BME280;68206;59.956;30.234;2023-11-22T02:22:44;102465.41;;;-4.08;63.53
78855;BME280;68206;59.956;30.234;2023-11-22T02:25:15;102465.50;;;-4.06;63.56
78855;BME280;68206;59.956;30.234;2023-11-22T02:27:44;102461.25;;;-4.04;63.90
78855;BME280;68206;59.956;30.234;2023-11-22T02:30:12;102468.09;;;-4.06;64.17
78855;BME280;68206;59.956;30.234;2023-11-22T02:32:41;102471.63;;;-4.04;63.70
78855;BME280;68206;59.956;30.234;2023-11-22T02:35:09;102469.78;;;-4.07;63.26
78855;BME280;68206;59.956;30.234;2023-11-22T02:37:38;102459.47;;;-4.05;63.41
78855;BME280;68206;59.956;30.234;2023-11-22T02:40:14;102467.34;;;-4.03;62.73
78855;BME280;68206;59.956;30.234;2023-11-22T02:42:46;102464.75;;;-4.03;63.54
78855;BME280;68206;59.956;30.234;2023-11-22T02:45:16;102450.56;;;-4.10;63.13
78855;BME280;68206;59.956;30.234;2023-11-22T02:47:45;102462.72;;;-4.09;63.12
78855;BME280;68206;59.956;30.234;2023-11-22T02:50:14;102455.72;;;-4.10;63.63
78855;BME280;68206;59.956;30.234;2023-11-22T02:52:42;102455.94;;;-4.07;64.10
78855;BME280;68206;59.956;30.234;2023-11-22T02:55:11;102449.94;;;-4.06;63.44
78855;BME280;68206;59.956;30.234;2023-11-22T02:57:39;102455.13;;;-4.06;63.98
78855;BME280;68206;59.956;30.234;2023-11-22T03:00:10;102452.69;;;-4.03;63.14
78855;BME280;68206;59.956;30.234;2023-11-22T03:02:40;102453.69;;;-4.01;63.54
78855;BME280;68206;59.956;30.234;2023-11-22T03:05:10;102446.16;;;-3.96;63.21
78855;BME280;68206;59.956;30.234;2023-11-22T03:07:40;102445.72;;;-3.89;63.68
78855;BME280;68206;59.956;30.234;2023-11-22T03:10:09;102452.75;;;-3.87;63.26
78855;BME280;68206;59.956;30.234;2023-11-22T03:12:38;102440.88;;;-3.83;62.96
78855;BME280;68206;59.956;30.234;2023-11-22T03:15:07;102441.56;;;-3.86;62.86
78855;BME280;68206;59.956;30.234;2023-11-22T03:17:37;102439.06;;;-3.84;62.79
78855;BME280;68206;59.956;30.234;2023-11-22T03:20:07;102441.91;;;-3.80;63.56
78855;BME280;68206;59.956;30.234;2023-11-22T03:22:38;102442.09;;;-3.77;62.86
78855;BME280;68206;59.956;30.234;2023-11-22T03:25:07;102441.34;;;-3.74;62.41
78855;BME280;68206;59.956;30.234;2023-11-22T03:27:37;102439.84;;;-3.71;63.34
78855;BME280;68206;59.956;30.234;2023-11-22T03:30:07;102430.72;;;-3.64;62.17
78855;BME280;68206;59.956;30.234;2023-11-22T03:32:41;102428.13;;;-3.64;62.95
78855;BME280;68206;59.956;30.234;2023-11-22T03:35:11;102423.81;;;-3.63;61.59
78855;BME280;68206;59.956;30.234;2023-11-22T03:37:40;102428.44;;;-3.58;61.74
78855;BME280;68206;59.956;30.234;2023-11-22T03:40:10;102434.69;;;-3.54;61.53
78855;BME280;68206;59.956;30.234;2023-11-22T03:42:40;102439.88;;;-3.54;62.08
78855;BME280;68206;59.956;30.234;2023-11-22T03:45:09;102433.97;;;-3.52;61.57
78855;BME280;68206;59.956;30.234;2023-11-22T03:47:41;102433.97;;;-3.52;61.36
78855;BME280;68206;59.956;30.234;2023-11-22T03:50:09;102439.25;;;-3.50;61.35
78855;BME280;68206;59.956;30.234;2023-11-22T03:52:38;102428.03;;;-3.49;61.83
78855;BME280;68206;59.956;30.234;2023-11-22T03:55:07;102431.94;;;-3.41;61.71
78855;BME280;68206;59.956;30.234;2023-11-22T03:57:36;102436.09;;;-3.45;61.26
78855;BME280;68206;59.956;30.234;2023-11-22T04:00:05;102435.53;;;-3.39;60.78
78855;BME280;68206;59.956;30.234;2023-11-22T04:02:40;102428.69;;;-3.37;61.05
78855;BME280;68206;59.956;30.234;2023-11-22T04:05:10;102434.78;;;-3.37;60.90
78855;BME280;68206;59.956;30.234;2023-11-22T04:07:40;102436.66;;;-3.34;60.11
78855;BME280;68206;59.956;30.234;2023-11-22T04:10:09;102445.50;;;-3.31;60.50
78855;BME280;68206;59.956;30.234;2023-11-22T04:12:37;102435.19;;;-3.29;60.52
78855;BME280;68206;59.956;30.234;2023-11-22T04:15:07;102431.72;;;-3.30;60.18
78855;BME280;68206;59.956;30.234;2023-11-22T04:17:37;102431.81;;;-3.28;60.50
78855;BME280;68206;59.956;30.234;2023-11-22T04:20:09;102427.59;;;-3.26;59.80
78855;BME280;68206;59.956;30.234;2023-11-22T04:22:38;102426.47;;;-3.31;59.92
78855;BME280;68206;59.956;30.234;2023-11-22T04:25:07;102429.06;;;-3.31;59.49
78855;BME280;68206;59.956;30.234;2023-11-22T04:27:36;102428.88;;;-3.34;59.84
78855;BME280;68206;59.956;30.234;2023-11-22T04:30:07;102428.78;;;-3.36;59.36
78855;BME280;68206;59.956;30.234;2023-11-22T04:32:40;102422.78;;;-3.35;60.14
78855;BME280;68206;59.956;30.234;2023-11-22T04:35:10;102421.91;;;-3.35;59.65
78855;BME280;68206;59.956;30.234;2023-11-22T04:37:40;102422.38;;;-3.42;59.41
78855;BME280;68206;59.956;30.234;2023-11-22T04:40:11;102426.53;;;-3.46;59.51
78855;BME280;68206;59.956;30.234;2023-11-22T04:42:41;102418.00;;;-3.43;60.08
78855;BME280;68206;59.956;30.234;2023-11-22T04:45:10;102424.41;;;-3.37;59.91
78855;BME280;68206;59.956;30.234;2023-11-22T04:47:38;102420.38;;;-3.32;59.41
78855;BME280;68206;59.956;30.234;2023-11-22T04:50:07;102418.03;;;-3.27;59.86
78855;BME280;68206;59.956;30.234;2023-11-22T04:52:37;102417.84;;;-3.30;59.71
78855;BME280;68206;59.956;30.234;2023-11-22T04:55:07;102429.22;;;-3.28;59.61
78855;BME280;68206;59.956;30.234;2023-11-22T04:57:35;102424.09;;;-3.27;58.77
78855;BME280;68206;59.956;30.234;2023-11-22T05:00:05;102422.56;;;-3.23;58.72
78855;BME280;68206;59.956;30.234;2023-11-22T05:02:34;102412.34;;;-3.20;58.85
78855;BME280;68206;59.956;30.234;2023-11-22T05:05:03;102416.09;;;-3.15;58.62
78855;BME280;68206;59.956;30.234;2023-11-22T05:07:32;102416.31;;;-3.10;59.02
78855;BME280;68206;59.956;30.234;2023-11-22T05:10:02;102410.41;;;-3.08;58.54
78855;BME280;68206;59.956;30.234;2023-11-22T05:12:30;102410.63;;;-3.03;58.31
78855;BME280;68206;59.956;30.234;2023-11-22T05:15:00;102403.84;;;-3.01;58.29
78855;BME280;68206;59.956;30.234;2023-11-22T05:17:29;102400.34;;;-3.02;58.38
78855;BME280;68206;59.956;30.234;2023-11-22T05:19:58;102406.44;;;-3.01;58.37
78855;BME280;68206;59.956;30.234;2023-11-22T05:22:27;102403.09;;;-2.99;57.82
78855;BME280;68206;59.956;30.234;2023-11-22T05:24:55;102400.44;;;-3.00;57.70
78855;BME280;68206;59.956;30.234;2023-11-22T05:27:25;102403.97;;;-2.98;58.25
78855;BME280;68206;59.956;30.234;2023-11-22T05:29:53;102406.97;;;-2.91;58.01
78855;BME280;68206;59.956;30.234;2023-11-22T05:32:22;102404.28;;;-2.92;58.66
78855;BME280;68206;59.956;30.234;2023-11-22T05:34:50;102405.94;;;-2.94;58.59
78855;BME280;68206;59.956;30.234;2023-11-22T05:37:19;102406.97;;;-2.91;58.16
78855;BME280;68206;59.956;30.234;2023-11-22T05:39:50;102400.97;;;-2.90;59.00
78855;BME280;68206;59.956;30.234;2023-11-22T05:42:19;102405.59;;;-2.84;58.40
78855;BME280;68206;59.956;30.234;2023-11-22T05:44:48;102409.31;;;-2.79;58.42
78855;BME280;68206;59.956;30.234;2023-11-22T05:47:17;102401.69;;;-2.76;58.13
78855;BME280;68206;59.956;30.234;2023-11-22T05:49:46;102406.00;;;-2.76;57.74
78855;BME280;68206;59.956;30.234;2023-11-22T05:52:14;102406.06;;;-2.75;58.00
78855;BME280;68206;59.956;30.234;2023-11-22T05:54:43;102391.13;;;-2.79;57.98
78855;BME280;68206;59.956;30.234;2023-11-22T05:57:11;102401.69;;;-2.76;57.83
78855;BME280;68206;59.956;30.234;2023-11-22T05:59:40;102402.19;;;-2.83;57.70
78855;BME280;68206;59.956;30.234;2023-11-22T06:02:10;102398.91;;;-2.79;57.98
78855;BME280;68206;59.956;30.234;2023-11-22T06:04:40;102396.75;;;-2.88;58.08
78855;BME280;68206;59.956;30.234;2023-11-22T06:07:09;102401.47;;;-2.97;57.32
78855;BME280;68206;59.956;30.234;2023-11-22T06:09:37;102404.25;;;-2.94;58.75
78855;BME280;68206;59.956;30.234;2023-11-22T06:12:06;102395.16;;;-3.02;58.73
78855;BME280;68206;59.956;30.234;2023-11-22T06:14:34;102402.94;;;-3.02;58.11
78855;BME280;68206;59.956;30.234;2023-11-22T06:17:04;102409.75;;;-3.04;58.68
78855;BME280;68206;59.956;30.234;2023-11-22T06:19:33;102406.25;;;-3.04;58.65
78855;BME280;68206;59.956;30.234;2023-11-22T06:22:02;102403.56;;;-3.06;59.15
78855;BME280;68206;59.956;30.234;2023-11-22T06:24:31;102405.03;;;-3.11;59.53
78855;BME280;68206;59.956;30.234;2023-11-22T06:27:00;102395.63;;;-3.09;59.30
78855;BME280;68206;59.956;30.234;2023-11-22T06:29:28;102410.00;;;-3.15;59.21
78855;BME280;68206;59.956;30.234;2023-11-22T06:31:57;102415.28;;;-3.14;59.34
78855;BME280;68206;59.956;30.234;2023-11-22T06:34:25;102407.97;;;-3.21;59.12
78855;BME280;68206;59.956;30.234;2023-11-22T06:36:55;102410.09;;;-3.14;59.42
78855;BME280;68206;59.956;30.234;2023-11-22T06:39:23;102405.78;;;-3.13;59.72
78855;BME280;68206;59.956;30.234;2023-11-22T06:41:52;102402.63;;;-3.08;59.54
78855;BME280;68206;59.956;30.234;2023-11-22T06:44:20;102398.91;;;-3.13;59.11
78855;BME280;68206;59.956;30.234;2023-11-22T06:46:50;102404.63;;;-3.18;59.72
78855;BME280;68206;59.956;30.234;2023-11-22T06:49:19;102396.22;;;-3.14;59.71
78855;BME280;68206;59.956;30.234;2023-11-22T06:51:47;102395.63;;;-3.09;58.99
78855;BME280;68206;59.956;30.234;2023-11-22T06:54:18;102390.44;;;-3.09;59.14
78855;BME280;68206;59.956;30.234;2023-11-22T06:56:47;102399.03;;;-3.10;58.67
78855;BME280;68206;59.956;30.234;2023-11-22T06:59:15;102387.69;;;-3.12;58.70
78855;BME280;68206;59.956;30.234;2023-11-22T07:01:43;102379.09;;;-3.11;58.79
78855;BME280;68206;59.956;30.234;2023-11-22T07:04:12;102379.19;;;-3.09;58.10
78855;BME280;68206;59.956;30.234;2023-11-22T07:06:40;102388.84;;;-3.07;57.76
78855;BME280;68206;59.956;30.234;2023-11-22T07:09:09;102379.97;;;-3.10;57.79
78855;BME280;68206;59.956;30.234;2023-11-22T07:11:40;102381.47;;;-3.15;58.10
78855;BME280;68206;59.956;30.234;2023-11-22T07:14:08;102385.03;;;-3.13;57.85
78855;BME280;68206;59.956;30.234;2023-11-22T07:16:36;102381.78;;;-3.09;57.82
78855;BME280;68206;59.956;30.234;2023-11-22T07:19:06;102385.66;;;-3.01;57.29
78855;BME280;68206;59.956;30.234;2023-11-22T07:21:34;102385.41;;;-3.06;57.54
78855;BME280;68206;59.956;30.234;2023-11-22T07:24:05;102384.47;;;-3.08;56.77
78855;BME280;68206;59.956;30.234;2023-11-22T07:26:36;102378.28;;;-3.10;56.77
78855;BME280;68206;59.956;30.234;2023-11-22T07:29:05;102375.03;;;-3.06;56.74
78855;BME280;68206;59.956;30.234;2023-11-22T07:31:34;102381.38;;;-3.01;56.88
78855;BME280;68206;59.956;30.234;2023-11-22T07:34:04;102382.00;;;-3.05;57.25
78855;BME280;68206;59.956;30.234;2023-11-22T07:36:33;102369.03;;;-3.05;56.29
78855;BME280;68206;59.956;30.234;2023-11-22T07:39:02;102368.41;;;-3.01;57.28
78855;BME280;68206;59.956;30.234;2023-11-22T07:41:30;102365.84;;;-2.99;55.99
78855;BME280;68206;59.956;30.234;2023-11-22T07:44:02;102369.66;;;-2.93;56.20
78855;BME280;68206;59.956;30.234;2023-11-22T07:46:32;102355.97;;;-2.90;56.21
78855;BME280;68206;59.956;30.234;2023-11-22T07:49:00;102361.72;;;-2.96;56.09
78855;BME280;68206;59.956;30.234;2023-11-22T07:51:29;102369.28;;;-3.00;56.26
78855;BME280;68206;59.956;30.234;2023-11-22T07:53:57;102362.53;;;-2.97;56.07
78855;BME280;68206;59.956;30.234;2023-11-22T07:56:26;102352.06;;;-2.98;56.65
78855;BME280;68206;59.956;30.234;2023-11-22T07:58:54;102350.53;;;-2.95;56.52
78855;BME280;68206;59.956;30.234;2023-11-22T08:01:23;102358.47;;;-2.92;56.86
78855;BME280;68206;59.956;30.234;2023-11-22T08:03:53;102353.84;;;-2.97;57.12
78855;BME280;68206;59.956;30.234;2023-11-22T08:06:22;102351.19;;;-2.99;57.10
78855;BME280;68206;59.956;30.234;2023-11-22T08:08:53;102348.13;;;-3.08;57.67
78855;BME280;68206;59.956;30.234;2023-11-22T08:11:22;102353.47;;;-3.05;57.08
78855;BME280;68206;59.956;30.234;2023-11-22T08:13:51;102353.13;;;-3.11;57.73
78855;BME280;68206;59.956;30.234;2023-11-22T08:16:22;102350.53;;;-3.11;57.24
78855;BME280;68206;59.956;30.234;2023-11-22T08:18:50;102349.50;;;-3.14;58.03
78855;BME280;68206;59.956;30.234;2023-11-22T08:21:20;102348.53;;;-3.16;57.67
78855;BME280;68206;59.956;30.234;2023-11-22T08:23:48;102345.53;;;-3.24;58.27
78855;BME280;68206;59.956;30.234;2023-11-22T08:26:17;102343.38;;;-3.33;58.23
78855;BME280;68206;59.956;30.234;2023-11-22T08:28:45;102345.47;;;-3.42;59.36
78855;BME280;68206;59.956;30.234;2023-11-22T08:31:14;102340.28;;;-3.42;58.88
78855;BME280;68206;59.956;30.234;2023-11-22T08:33:43;102337.59;;;-3.43;58.73
78855;BME280;68206;59.956;30.234;2023-11-22T08:36:12;102337.69;;;-3.42;59.04
78855;BME280;68206;59.956;30.234;2023-11-22T08:38:41;102339.38;;;-3.42;59.13
78855;BME280;68206;59.956;30.234;2023-11-22T08:41:11;102331.91;;;-3.36;58.82
78855;BME280;68206;59.956;30.234;2023-11-22T08:43:41;102331.19;;;-3.34;59.71
78855;BME280;68206;59.956;30.234;2023-11-22T08:46:10;102318.22;;;-3.34;60.13
78855;BME280;68206;59.956;30.234;2023-11-22T08:48:41;102322.53;;;-3.34;59.79
78855;BME280;68206;59.956;30.234;2023-11-22T08:51:10;102314.03;;;-3.32;59.50
78855;BME280;68206;59.956;30.234;2023-11-22T08:53:41;102306.31;;;-3.30;59.27
78855;BME280;68206;59.956;30.234;2023-11-22T08:56:11;102301.28;;;-3.27;59.67
78855;BME280;68206;59.956;30.234;2023-11-22T08:58:40;102291.06;;;-3.24;60.24
78855;BME280;68206;59.956;30.234;2023-11-22T09:01:10;102296.50;;;-3.19;59.86
78855;BME280;68206;59.956;30.234;2023-11-22T09:03:43;102294.22;;;-3.13;60.03
78855;BME280;68206;59.956;30.234;2023-11-22T09:06:11;102282.34;;;-3.08;59.25
78855;BME280;68206;59.956;30.234;2023-11-22T09:08:41;102285.03;;;-3.07;60.10
78855;BME280;68206;59.956;30.234;2023-11-22T09:11:10;102278.28;;;-3.03;59.88
78855;BME280;68206;59.956;30.234;2023-11-22T09:13:38;102282.81;;;-2.99;59.32
78855;BME280;68206;59.956;30.234;2023-11-22T09:16:07;102280.06;;;-3.02;59.21
78855;BME280;68206;59.956;30.234;2023-11-22T09:18:37;102269.91;;;-2.98;59.75
78855;BME280;68206;59.956;30.234;2023-11-22T09:21:05;102274.38;;;-2.95;59.53
78855;BME280;68206;59.956;30.234;2023-11-22T09:23:35;102270.00;;;-2.96;59.49
78855;BME280;68206;59.956;30.234;2023-11-22T09:26:05;102268.88;;;-3.01;59.32
78855;BME280;68206;59.956;30.234;2023-11-22T09:28:34;102261.16;;;-3.00;59.16
78855;BME280;68206;59.956;30.234;2023-11-22T09:31:03;102273.00;;;-3.05;59.25
78855;BME280;68206;59.956;30.234;2023-11-22T09:33:34;102260.84;;;-3.06;59.53
78855;BME280;68206;59.956;30.234;2023-11-22T09:36:03;102251.22;;;-3.08;58.80
78855;BME280;68206;59.956;30.234;2023-11-22T09:38:36;102250.25;;;-3.10;59.07
78855;BME280;68206;59.956;30.234;2023-11-22T09:41:07;102254.63;;;-3.09;59.52
78855;BME280;68206;59.956;30.234;2023-11-22T09:43:36;102251.03;;;-3.11;59.23
78855;BME280;68206;59.956;30.234;2023-11-22T09:46:08;102251.22;;;-3.08;58.57
78855;BME280;68206;59.956;30.234;2023-11-22T09:48:39;102249.59;;;-3.06;58.40
78855;BME280;68206;59.956;30.234;2023-11-22T09:51:16;102252.72;;;-2.96;58.88
78855;BME280;68206;59.956;30.234;2023-11-22T09:53:52;102250.72;;;-3.01;58.86
78855;BME280;68206;59.956;30.234;2023-11-22T09:56:23;102245.66;;;-2.98;58.07
78855;BME280;68206;59.956;30.234;2023-11-22T09:58:54;102247.53;;;-2.96;58.08
78855;BME280;68206;59.956;30.234;2023-11-22T10:01:24;102242.63;;;-2.90;57.44
78855;BME280;68206;59.956;30.234;2023-11-22T10:03:55;102234.03;;;-2.89;57.86
78855;BME280;68206;59.956;30.234;2023-11-22T10:06:24;102228.16;;;-2.85;58.13
78855;BME280;68206;59.956;30.234;2023-11-22T10:08:53;102222.00;;;-2.87;57.69
78855;BME280;68206;59.956;30.234;2023-11-22T10:11:23;102222.53;;;-2.76;57.66
78855;BME280;68206;59.956;30.234;2023-11-22T10:13:51;102226.84;;;-2.76;57.34
78855;BME280;68206;59.956;30.234;2023-11-22T10:16:20;102226.03;;;-2.75;56.57
78855;BME280;68206;59.956;30.234;2023-11-22T10:18:49;102227.78;;;-2.74;57.74
78855;BME280;68206;59.956;30.234;2023-11-22T10:21:22;102227.25;;;-2.67;56.81
78855;BME280;68206;59.956;30.234;2023-11-22T10:23:54;102222.44;;;-2.60;56.81
78855;BME280;68206;59.956;30.234;2023-11-22T10:26:25;102222.66;;;-2.73;56.04
78855;BME280;68206;59.956;30.234;2023-11-22T10:28:56;102215.94;;;-2.69;56.68
78855;BME280;68206;59.956;30.234;2023-11-22T10:31:26;102213.03;;;-2.58;56.44
78855;BME280;68206;59.956;30.234;2023-11-22T10:33:55;102214.34;;;-2.48;55.78
78855;BME280;68206;59.956;30.234;2023-11-22T10:36:25;102212.63;;;-2.48;55.95
78855;BME280;68206;59.956;30.234;2023-11-22T10:38:55;102212.84;;;-2.43;55.33
78855;BME280;68206;59.956;30.234;2023-11-22T10:41:26;102205.66;;;-2.49;55.01
78855;BME280;68206;59.956;30.234;2023-11-22T10:43:56;102201.50;;;-2.45;55.11
78855;BME280;68206;59.956;30.234;2023-11-22T10:46:27;102199.34;;;-2.54;55.27
78855;BME280;68206;59.956;30.234;2023-11-22T10:48:57;102192.38;;;-2.55;55.41
78855;BME280;68206;59.956;30.234;2023-11-22T10:51:30;102199.56;;;-2.49;55.00
78855;BME280;68206;59.956;30.234;2023-11-22T10:54:00;102186.06;;;-2.42;55.65
78855;BME280;68206;59.956;30.234;2023-11-22T10:56:38;102187.84;;;-2.41;55.01
78855;BME280;68206;59.956;30.234;2023-11-22T10:59:10;102173.81;;;-2.45;55.19
78855;BME280;68206;59.956;30.234;2023-11-22T11:01:44;102174.63;;;-2.46;55.22
78855;BME280;68206;59.956;30.234;2023-11-22T11:04:19;102177.59;;;-2.38;55.27
78855;BME280;68206;59.956;30.234;2023-11-22T11:06:51;102168.38;;;-2.31;55.24
78855;BME280;68206;59.956;30.234;2023-11-22T11:09:22;102167.06;;;-2.41;55.56
78855;BME280;68206;59.956;30.234;2023-11-22T11:11:58;102159.06;;;-2.46;54.98
78855;BME280;68206;59.956;30.234;2023-11-22T11:14:31;102159.25;;;-2.41;55.50
78855;BME280;68206;59.956;30.234;2023-11-22T11:17:00;102154.22;;;-2.38;55.11
78855;BME280;68206;59.956;30.234;2023-11-22T11:19:28;102161.03;;;-2.40;55.05
78855;BME280;68206;59.956;30.234;2023-11-22T11:21:59;102160.88;;;-2.43;54.98
78855;BME280;68206;59.956;30.234;2023-11-22T11:24:28;102148.13;;;-2.38;55.37
78855;BME280;68206;59.956;30.234;2023-11-22T11:27:02;102135.69;;;-2.46;55.81
78855;BME280;68206;59.956;30.234;2023-11-22T11:29:31;102137.59;;;-2.41;55.40
78855;BME280;68206;59.956;30.234;2023-11-22T11:32:02;102140.09;;;-2.43;55.81
78855;BME280;68206;59.956;30.234;2023-11-22T11:34:31;102133.28;;;-2.41;55.95
78855;BME280;68206;59.956;30.234;2023-11-22T11:37:00;102135.06;;;-2.40;55.45
78855;BME280;68206;59.956;30.234;2023-11-22T11:39:30;102132.31;;;-2.43;55.10
78855;BME280;68206;59.956;30.234;2023-11-22T11:42:11;102131.28;;;-2.47;55.12
78855;BME280;68206;59.956;30.234;2023-11-22T11:44:52;102122.63;;;-2.47;55.11
78855;BME280;68206;59.956;30.234;2023-11-22T11:47:31;102116.97;;;-2.38;55.18
78855;BME280;68206;59.956;30.234;2023-11-22T11:49:59;102125.41;;;-2.42;55.49
78855;BME280;68206;59.956;30.234;2023-11-22T11:52:29;102107.19;;;-2.44;55.36
78855;BME280;68206;59.956;30.234;2023-11-22T11:54:58;102102.72;;;-2.47;56.02
78855;BME280;68206;59.956;30.234;2023-11-22T11:57:31;102105.75;;;-2.57;55.73
78855;BME280;68206;59.956;30.234;2023-11-22T12:00:00;102109.34;;;-2.53;56.04
78855;BME280;68206;59.956;30.234;2023-11-22T12:02:37;102099.66;;;-2.57;56.07
78855;BME280;68206;59.956;30.234;2023-11-22T12:05:06;102095.88;;;-2.64;56.32
78855;BME280;68206;59.956;30.234;2023-11-22T12:07:36;102098.53;;;-2.62;56.07
78855;BME280;68206;59.956;30.234;2023-11-22T12:10:06;102083.25;;;-2.56;55.89
78855;BME280;68206;59.956;30.234;2023-11-22T12:12:36;102076.41;;;-2.54;56.32
78855;BME280;68206;59.956;30.234;2023-11-22T12:15:08;102076.31;;;-2.56;55.98
78855;BME280;68206;59.956;30.234;2023-11-22T12:17:38;102068.53;;;-2.56;56.30
78855;BME280;68206;59.956;30.234;2023-11-22T12:20:13;102067.72;;;-2.55;55.76
78855;BME280;68206;59.956;30.234;2023-11-22T12:22:45;102065.13;;;-2.55;56.62
78855;BME280;68206;59.956;30.234;2023-11-22T12:25:14;102063.34;;;-2.56;55.99
78855;BME280;68206;59.956;30.234;2023-11-22T12:27:44;102049.53;;;-2.55;55.82
78855;BME280;68206;59.956;30.234;2023-11-22T12:30:28;102056.03;;;-2.45;55.93
78855;BME280;68206;59.956;30.234;2023-11-22T12:33:02;102049.69;;;-2.52;56.63
78855;BME280;68206;59.956;30.234;2023-11-22T12:35:32;102041.63;;;-2.58;56.95
78855;BME280;68206;59.956;30.234;2023-11-22T12:38:02;102042.44;;;-2.59;57.16
78855;BME280;68206;59.956;30.234;2023-11-22T12:40:33;102048.44;;;-2.60;56.55
78855;BME280;68206;59.956;30.234;2023-11-22T12:43:04;102043.25;;;-2.60;56.59
78855;BME280;68206;59.956;30.234;2023-11-22T12:45:33;102050.97;;;-2.61;56.97
78855;BME280;68206;59.956;30.234;2023-11-22T12:48:20;102045.84;;;-2.60;57.26
78855;BME280;68206;59.956;30.234;2023-11-22T12:50:51;102037.06;;;-2.63;56.88
78855;BME280;68206;59.956;30.234;2023-11-22T12:53:21;102031.16;;;-2.59;57.35